sensor_id;sensor_type;location;lat;lon;timestamp;P1;durP1;ratioP1;P2;durP2;ratioP2
15677;SDS011;7939;50.814;6.368;2022-10-18T00:02:14;6.45;;;4.82;;
15677;SDS011;7939;50.814;6.368;2022-10-18T00:04:40;6.72;;;4.40;;
15677;SDS011;7939;50.814;6.368;2022-10-18T00:07:07;6.32;;;4.93;;
15677;SDS011;7939;50.814;6.368;2022-10-18T00:09:35;6.40;;;5.00;;
15677;SDS011;7939;50.814;6.368;2022-10-18T00:12:01;6.45;;;4.40;;
15677;SDS011;7939;50.814;6.368;2022-10-18T00:14:28;3.95;;;3.55;;
15677;SDS011;7939;50.814;6.368;2022-10-18T00:16:55;3.60;;;3.20;;
15677;SDS011;7939;50.814;6.368;2022-10-18T00:19:22;6.38;;;4.07;;
15677;SDS011;7939;50.814;6.368;2022-10-18T00:21:49;7.50;;;4.53;;
15677;SDS011;7939;50.814;6.368;2022-10-18T00:24:15;5.47;;;4.65;;
15677;SDS011;7939;50.814;6.368;2022-10-18T00:26:43;5.50;;;4.53;;
15677;SDS011;7939;50.814;6.368;2022-10-18T00:29:12;9.40;;;4.50;;
15677;SDS011;7939;50.814;6.368;2022-10-18T00:31:39;6.72;;;4.57;;
15677;SDS011;7939;50.814;6.368;2022-10-18T00:34:08;6.95;;;5.32;;
15677;SDS011;7939;50.814;6.368;2022-10-18T00:36:36;5.53;;;4.72;;
15677;SDS011;7939;50.814;6.368;2022-10-18T00:39:03;5.30;;;4.80;;
15677;SDS011;7939;50.814;6.368;2022-10-18T00:41:32;6.13;;;5.13;;
15677;SDS011;7939;50.814;6.368;2022-10-18T00:44:02;8.27;;;5.40;;
15677;SDS011;7939;50.814;6.368;2022-10-18T00:46:31;7.88;;;5.75;;
15677;SDS011;7939;50.814;6.368;2022-10-18T00:49:00;5.35;;;4.85;;
15677;SDS011;7939;50.814;6.368;2022-10-18T00:51:29;7.28;;;5.20;;
15677;SDS011;7939;50.814;6.368;2022-10-18T00:54:00;6.45;;;5.57;;
15677;SDS011;7939;50.814;6.368;2022-10-18T00:56:27;5.78;;;4.82;;
15677;SDS011;7939;50.814;6.368;2022-10-18T00:58:54;7.70;;;5.43;;
15677;SDS011;7939;50.814;6.368;2022-10-18T01:01:23;6.18;;;5.00;;
15677;SDS011;7939;50.814;6.368;2022-10-18T01:03:50;8.98;;;5.75;;
15677;SDS011;7939;50.814;6.368;2022-10-18T01:06:18;7.93;;;5.65;;
15677;SDS011;7939;50.814;6.368;2022-10-18T01:08:49;7.80;;;6.53;;
15677;SDS011;7939;50.814;6.368;2022-10-18T01:11:28;8.25;;;6.25;;
15677;SDS011;7939;50.814;6.368;2022-10-18T01:14:12;9.30;;;5.75;;
15677;SDS011;7939;50.814;6.368;2022-10-18T01:16:50;7.78;;;5.88;;
15677;SDS011;7939;50.814;6.368;2022-10-18T01:19:27;8.25;;;6.40;;
15677;SDS011;7939;50.814;6.368;2022-10-18T01:22:13;6.35;;;5.10;;
15677;SDS011;7939;50.814;6.368;2022-10-18T01:24:55;6.70;;;4.53;;
15677;SDS011;7939;50.814;6.368;2022-10-18T01:27:38;5.90;;;4.82;;
15677;SDS011;7939;50.814;6.368;2022-10-18T01:33:02;6.30;;;4.95;;
15677;SDS011;7939;50.814;6.368;2022-10-18T01:35:33;5.80;;;4.57;;
15677;SDS011;7939;50.814;6.368;2022-10-18T01:38:05;5.50;;;4.82;;
15677;SDS011;7939;50.814;6.368;2022-10-18T01:40:36;6.65;;;5.50;;
15677;SDS011;7939;50.814;6.368;2022-10-18T01:43:06;7.10;;;5.80;;
15677;SDS011;7939;50.814;6.368;2022-10-18T01:45:36;6.72;;;5.95;;
15677;SDS011;7939;50.814;6.368;2022-10-18T01:48:02;7.97;;;4.88;;
15677;SDS011;7939;50.814;6.368;2022-10-18T01:50:29;6.75;;;5.47;;
15677;SDS011;7939;50.814;6.368;2022-10-18T01:52:58;6.70;;;5.03;;
15677;SDS011;7939;50.814;6.368;2022-10-18T01:55:25;6.65;;;5.35;;
15677;SDS011;7939;50.814;6.368;2022-10-18T01:57:59;7.57;;;6.03;;
15677;SDS011;7939;50.814;6.368;2022-10-18T02:00:36;9.35;;;5.95;;
15677;SDS011;7939;50.814;6.368;2022-10-18T02:03:07;8.68;;;5.85;;
15677;SDS011;7939;50.814;6.368;2022-10-18T02:05:42;6.43;;;5.43;;
15677;SDS011;7939;50.814;6.368;2022-10-18T02:08:16;7.50;;;6.10;;
15677;SDS011;7939;50.814;6.368;2022-10-18T02:10:51;7.20;;;5.60;;
15677;SDS011;7939;50.814;6.368;2022-10-18T02:13:21;10.88;;;7.00;;
15677;SDS011;7939;50.814;6.368;2022-10-18T02:15:53;9.00;;;6.85;;
15677;SDS011;7939;50.814;6.368;2022-10-18T02:18:24;9.27;;;7.03;;
15677;SDS011;7939;50.814;6.368;2022-10-18T02:20:55;8.55;;;7.07;;
15677;SDS011;7939;50.814;6.368;2022-10-18T02:23:23;10.90;;;7.38;;
15677;SDS011;7939;50.814;6.368;2022-10-18T02:25:51;11.82;;;7.72;;
15677;SDS011;7939;50.814;6.368;2022-10-18T02:28:19;11.05;;;7.32;;
15677;SDS011;7939;50.814;6.368;2022-10-18T02:30:46;10.63;;;7.60;;
15677;SDS011;7939;50.814;6.368;2022-10-18T02:33:26;9.98;;;6.68;;
15677;SDS011;7939;50.814;6.368;2022-10-18T02:35:58;10.00;;;6.78;;
15677;SDS011;7939;50.814;6.368;2022-10-18T02:38:30;7.55;;;5.78;;
15677;SDS011;7939;50.814;6.368;2022-10-18T02:40:57;8.85;;;6.30;;
15677;SDS011;7939;50.814;6.368;2022-10-18T02:43:24;8.00;;;5.63;;
15677;SDS011;7939;50.814;6.368;2022-10-18T02:45:52;7.43;;;6.07;;
15677;SDS011;7939;50.814;6.368;2022-10-18T02:48:19;6.28;;;5.07;;
15677;SDS011;7939;50.814;6.368;2022-10-18T02:50:46;7.25;;;4.88;;
15677;SDS011;7939;50.814;6.368;2022-10-18T02:53:12;6.95;;;4.70;;
15677;SDS011;7939;50.814;6.368;2022-10-18T02:55:39;6.05;;;4.30;;
15677;SDS011;7939;50.814;6.368;2022-10-18T02:58:06;7.07;;;4.43;;
15677;SDS011;7939;50.814;6.368;2022-10-18T03:00:32;5.55;;;4.30;;
15677;SDS011;7939;50.814;6.368;2022-10-18T03:03:00;5.60;;;4.85;;
15677;SDS011;7939;50.814;6.368;2022-10-18T03:05:27;6.07;;;4.78;;
15677;SDS011;7939;50.814;6.368;2022-10-18T03:07:55;9.40;;;5.75;;
15677;SDS011;7939;50.814;6.368;2022-10-18T03:10:21;9.07;;;5.60;;
15677;SDS011;7939;50.814;6.368;2022-10-18T03:12:48;6.13;;;4.75;;
15677;SDS011;7939;50.814;6.368;2022-10-18T03:15:14;9.15;;;6.18;;
15677;SDS011;7939;50.814;6.368;2022-10-18T03:17:41;7.55;;;5.68;;
15677;SDS011;7939;50.814;6.368;2022-10-18T03:20:10;8.43;;;6.25;;
15677;SDS011;7939;50.814;6.368;2022-10-18T03:22:36;7.78;;;5.07;;
15677;SDS011;7939;50.814;6.368;2022-10-18T03:25:03;7.53;;;6.07;;
15677;SDS011;7939;50.814;6.368;2022-10-18T03:27:30;9.27;;;6.57;;
15677;SDS011;7939;50.814;6.368;2022-10-18T03:29:57;8.05;;;6.78;;
15677;SDS011;7939;50.814;6.368;2022-10-18T03:32:25;10.13;;;7.25;;
15677;SDS011;7939;50.814;6.368;2022-10-18T03:34:51;10.10;;;7.15;;
15677;SDS011;7939;50.814;6.368;2022-10-18T03:37:19;8.93;;;6.50;;
15677;SDS011;7939;50.814;6.368;2022-10-18T03:39:45;9.93;;;7.05;;
15677;SDS011;7939;50.814;6.368;2022-10-18T03:42:12;8.35;;;6.63;;
15677;SDS011;7939;50.814;6.368;2022-10-18T03:44:38;11.45;;;6.47;;
15677;SDS011;7939;50.814;6.368;2022-10-18T03:47:05;11.60;;;6.55;;
15677;SDS011;7939;50.814;6.368;2022-10-18T03:49:33;7.75;;;6.32;;
15677;SDS011;7939;50.814;6.368;2022-10-18T03:51:59;9.18;;;6.82;;
15677;SDS011;7939;50.814;6.368;2022-10-18T03:54:27;7.90;;;6.40;;
15677;SDS011;7939;50.814;6.368;2022-10-18T03:56:54;10.13;;;7.35;;
15677;SDS011;7939;50.814;6.368;2022-10-18T03:59:21;9.82;;;6.75;;
15677;SDS011;7939;50.814;6.368;2022-10-18T04:01:48;10.63;;;7.65;;
15677;SDS011;7939;50.814;6.368;2022-10-18T04:04:14;10.88;;;7.45;;
15677;SDS011;7939;50.814;6.368;2022-10-18T04:06:41;10.70;;;7.65;;
15677;SDS011;7939;50.814;6.368;2022-10-18T04:09:08;11.65;;;8.63;;
15677;SDS011;7939;50.814;6.368;2022-10-18T04:11:36;12.35;;;8.35;;
15677;SDS011;7939;50.814;6.368;2022-10-18T04:14:03;10.85;;;7.80;;
15677;SDS011;7939;50.814;6.368;2022-10-18T04:16:29;10.48;;;7.55;;
15677;SDS011;7939;50.814;6.368;2022-10-18T04:18:56;9.02;;;7.32;;
15677;SDS011;7939;50.814;6.368;2022-10-18T04:21:23;9.75;;;8.10;;
15677;SDS011;7939;50.814;6.368;2022-10-18T04:23:49;12.45;;;7.88;;
15677;SDS011;7939;50.814;6.368;2022-10-18T04:26:16;11.68;;;7.80;;
15677;SDS011;7939;50.814;6.368;2022-10-18T04:28:44;9.00;;;6.47;;
15677;SDS011;7939;50.814;6.368;2022-10-18T04:31:10;11.25;;;6.68;;
15677;SDS011;7939;50.814;6.368;2022-10-18T04:33:37;11.00;;;7.38;;
15677;SDS011;7939;50.814;6.368;2022-10-18T04:36:04;13.05;;;7.88;;
15677;SDS011;7939;50.814;6.368;2022-10-18T04:38:31;11.52;;;7.70;;
15677;SDS011;7939;50.814;6.368;2022-10-18T04:40:57;10.15;;;7.10;;
15677;SDS011;7939;50.814;6.368;2022-10-18T04:43:24;12.85;;;8.27;;
15677;SDS011;7939;50.814;6.368;2022-10-18T04:45:52;10.93;;;7.50;;
15677;SDS011;7939;50.814;6.368;2022-10-18T04:48:18;11.50;;;8.20;;
15677;SDS011;7939;50.814;6.368;2022-10-18T04:50:46;9.48;;;6.60;;
15677;SDS011;7939;50.814;6.368;2022-10-18T04:53:13;11.32;;;7.35;;
15677;SDS011;7939;50.814;6.368;2022-10-18T04:55:42;11.32;;;7.22;;
15677;SDS011;7939;50.814;6.368;2022-10-18T04:58:09;9.88;;;7.00;;
15677;SDS011;7939;50.814;6.368;2022-10-18T05:00:35;10.60;;;7.85;;
15677;SDS011;7939;50.814;6.368;2022-10-18T05:03:03;13.18;;;8.35;;
15677;SDS011;7939;50.814;6.368;2022-10-18T05:05:30;13.02;;;8.25;;
15677;SDS011;7939;50.814;6.368;2022-10-18T05:07:57;12.90;;;9.00;;
15677;SDS011;7939;50.814;6.368;2022-10-18T05:10:23;14.75;;;9.77;;
15677;SDS011;7939;50.814;6.368;2022-10-18T05:12:50;21.85;;;10.48;;
15677;SDS011;7939;50.814;6.368;2022-10-18T05:15:16;23.77;;;11.15;;
15677;SDS011;7939;50.814;6.368;2022-10-18T05:17:43;21.83;;;12.25;;
15677;SDS011;7939;50.814;6.368;2022-10-18T05:20:11;25.23;;;12.32;;
15677;SDS011;7939;50.814;6.368;2022-10-18T05:22:38;21.83;;;11.68;;
15677;SDS011;7939;50.814;6.368;2022-10-18T05:25:05;23.02;;;11.90;;
15677;SDS011;7939;50.814;6.368;2022-10-18T05:27:32;21.48;;;12.13;;
15677;SDS011;7939;50.814;6.368;2022-10-18T05:29:59;23.15;;;12.85;;
15677;SDS011;7939;50.814;6.368;2022-10-18T05:32:25;22.63;;;12.73;;
15677;SDS011;7939;50.814;6.368;2022-10-18T05:34:52;20.92;;;12.95;;
15677;SDS011;7939;50.814;6.368;2022-10-18T05:37:20;20.52;;;13.02;;
15677;SDS011;7939;50.814;6.368;2022-10-18T05:39:47;20.73;;;13.52;;
15677;SDS011;7939;50.814;6.368;2022-10-18T05:42:13;19.60;;;13.45;;
15677;SDS011;7939;50.814;6.368;2022-10-18T05:44:40;25.33;;;14.85;;
15677;SDS011;7939;50.814;6.368;2022-10-18T05:47:06;24.77;;;14.40;;
15677;SDS011;7939;50.814;6.368;2022-10-18T05:49:33;26.95;;;14.60;;
15677;SDS011;7939;50.814;6.368;2022-10-18T05:52:00;24.20;;;14.60;;
15677;SDS011;7939;50.814;6.368;2022-10-18T05:54:28;26.90;;;15.40;;
15677;SDS011;7939;50.814;6.368;2022-10-18T05:56:55;31.55;;;15.85;;
15677;SDS011;7939;50.814;6.368;2022-10-18T05:59:21;28.55;;;16.52;;
15677;SDS011;7939;50.814;6.368;2022-10-18T06:01:48;26.25;;;15.25;;
15677;SDS011;7939;50.814;6.368;2022-10-18T06:04:15;25.65;;;15.02;;
15677;SDS011;7939;50.814;6.368;2022-10-18T06:06:42;26.02;;;15.32;;
15677;SDS011;7939;50.814;6.368;2022-10-18T06:09:08;28.73;;;15.52;;
15677;SDS011;7939;50.814;6.368;2022-10-18T06:11:36;28.83;;;16.60;;
15677;SDS011;7939;50.814;6.368;2022-10-18T06:14:03;24.15;;;15.35;;
15677;SDS011;7939;50.814;6.368;2022-10-18T06:16:30;26.88;;;15.02;;
15677;SDS011;7939;50.814;6.368;2022-10-18T06:18:56;26.42;;;15.07;;
15677;SDS011;7939;50.814;6.368;2022-10-18T06:21:24;29.70;;;16.30;;
15677;SDS011;7939;50.814;6.368;2022-10-18T06:23:51;28.05;;;16.10;;
15677;SDS011;7939;50.814;6.368;2022-10-18T06:26:19;30.50;;;15.95;;
15677;SDS011;7939;50.814;6.368;2022-10-18T06:28:47;28.40;;;15.88;;
15677;SDS011;7939;50.814;6.368;2022-10-18T06:31:14;26.58;;;16.33;;
15677;SDS011;7939;50.814;6.368;2022-10-18T06:33:42;25.23;;;15.98;;
15677;SDS011;7939;50.814;6.368;2022-10-18T06:36:10;30.65;;;18.20;;
15677;SDS011;7939;50.814;6.368;2022-10-18T06:38:38;34.33;;;19.05;;
15677;SDS011;7939;50.814;6.368;2022-10-18T06:41:06;32.50;;;17.80;;
15677;SDS011;7939;50.814;6.368;2022-10-18T06:43:33;34.30;;;18.70;;
15677;SDS011;7939;50.814;6.368;2022-10-18T06:46:02;33.58;;;18.92;;
15677;SDS011;7939;50.814;6.368;2022-10-18T06:48:31;35.38;;;18.27;;
15677;SDS011;7939;50.814;6.368;2022-10-18T06:50:59;44.92;;;20.02;;
15677;SDS011;7939;50.814;6.368;2022-10-18T06:53:28;50.95;;;20.50;;
15677;SDS011;7939;50.814;6.368;2022-10-18T06:55:57;35.70;;;18.45;;
15677;SDS011;7939;50.814;6.368;2022-10-18T06:58:25;33.55;;;18.42;;
15677;SDS011;7939;50.814;6.368;2022-10-18T07:00:51;35.28;;;18.20;;
15677;SDS011;7939;50.814;6.368;2022-10-18T07:03:19;32.75;;;18.95;;
15677;SDS011;7939;50.814;6.368;2022-10-18T07:05:46;32.00;;;18.45;;
15677;SDS011;7939;50.814;6.368;2022-10-18T07:08:13;36.25;;;19.42;;
15677;SDS011;7939;50.814;6.368;2022-10-18T07:10:40;24.80;;;14.75;;
15677;SDS011;7939;50.814;6.368;2022-10-18T07:13:07;33.50;;;17.63;;
15677;SDS011;7939;50.814;6.368;2022-10-18T07:15:34;34.22;;;17.92;;
15677;SDS011;7939;50.814;6.368;2022-10-18T07:18:02;30.10;;;17.42;;
15677;SDS011;7939;50.814;6.368;2022-10-18T07:20:30;32.22;;;18.02;;
15677;SDS011;7939;50.814;6.368;2022-10-18T07:22:57;33.97;;;19.00;;
15677;SDS011;7939;50.814;6.368;2022-10-18T07:25:24;32.10;;;17.55;;
15677;SDS011;7939;50.814;6.368;2022-10-18T07:27:50;32.55;;;17.73;;
15677;SDS011;7939;50.814;6.368;2022-10-18T07:30:17;36.67;;;18.40;;
15677;SDS011;7939;50.814;6.368;2022-10-18T07:32:44;39.03;;;23.80;;
15677;SDS011;7939;50.814;6.368;2022-10-18T07:35:10;35.78;;;19.45;;
15677;SDS011;7939;50.814;6.368;2022-10-18T07:37:39;41.90;;;24.20;;
15677;SDS011;7939;50.814;6.368;2022-10-18T07:40:06;35.58;;;19.88;;
15677;SDS011;7939;50.814;6.368;2022-10-18T07:42:34;34.15;;;21.00;;
15677;SDS011;7939;50.814;6.368;2022-10-18T07:45:00;34.83;;;21.08;;
15677;SDS011;7939;50.814;6.368;2022-10-18T07:47:27;35.88;;;19.25;;
15677;SDS011;7939;50.814;6.368;2022-10-18T07:49:54;33.60;;;19.10;;
15677;SDS011;7939;50.814;6.368;2022-10-18T07:52:20;35.33;;;19.13;;
15677;SDS011;7939;50.814;6.368;2022-10-18T07:54:48;30.42;;;18.10;;
15677;SDS011;7939;50.814;6.368;2022-10-18T07:57:14;34.38;;;18.25;;
15677;SDS011;7939;50.814;6.368;2022-10-18T07:59:41;37.30;;;19.67;;
15677;SDS011;7939;50.814;6.368;2022-10-18T08:02:10;35.92;;;19.08;;
15677;SDS011;7939;50.814;6.368;2022-10-18T08:04:36;35.80;;;18.15;;
15677;SDS011;7939;50.814;6.368;2022-10-18T08:07:03;31.45;;;18.48;;
15677;SDS011;7939;50.814;6.368;2022-10-18T08:09:30;32.58;;;18.30;;
15677;SDS011;7939;50.814;6.368;2022-10-18T08:11:58;33.53;;;18.63;;
15677;SDS011;7939;50.814;6.368;2022-10-18T08:14:25;31.80;;;18.00;;
15677;SDS011;7939;50.814;6.368;2022-10-18T08:16:52;33.78;;;18.23;;
15677;SDS011;7939;50.814;6.368;2022-10-18T08:19:18;37.75;;;19.92;;
15677;SDS011;7939;50.814;6.368;2022-10-18T08:21:45;39.75;;;20.85;;
15677;SDS011;7939;50.814;6.368;2022-10-18T08:24:11;38.53;;;20.92;;
15677;SDS011;7939;50.814;6.368;2022-10-18T08:26:38;40.85;;;22.05;;
15677;SDS011;7939;50.814;6.368;2022-10-18T08:29:06;43.03;;;21.50;;
15677;SDS011;7939;50.814;6.368;2022-10-18T08:31:32;38.20;;;21.88;;
15677;SDS011;7939;50.814;6.368;2022-10-18T08:33:59;39.25;;;21.23;;
15677;SDS011;7939;50.814;6.368;2022-10-18T08:36:26;44.47;;;21.48;;
15677;SDS011;7939;50.814;6.368;2022-10-18T08:38:53;43.83;;;21.35;;
15677;SDS011;7939;50.814;6.368;2022-10-18T08:41:26;41.28;;;21.35;;
15677;SDS011;7939;50.814;6.368;2022-10-18T08:44:06;43.60;;;21.33;;
15677;SDS011;7939;50.814;6.368;2022-10-18T08:46:40;40.85;;;21.70;;
15677;SDS011;7939;50.814;6.368;2022-10-18T08:49:10;38.47;;;21.10;;
15677;SDS011;7939;50.814;6.368;2022-10-18T08:51:46;46.15;;;22.83;;
15677;SDS011;7939;50.814;6.368;2022-10-18T08:54:17;42.13;;;22.60;;
15677;SDS011;7939;50.814;6.368;2022-10-18T08:56:55;45.65;;;22.55;;
15677;SDS011;7939;50.814;6.368;2022-10-18T08:59:26;40.97;;;20.90;;
15677;SDS011;7939;50.814;6.368;2022-10-18T09:02:00;45.25;;;21.85;;
15677;SDS011;7939;50.814;6.368;2022-10-18T09:04:39;45.65;;;22.63;;
15677;SDS011;7939;50.814;6.368;2022-10-18T09:07:24;44.17;;;21.30;;
15677;SDS011;7939;50.814;6.368;2022-10-18T09:10:07;42.42;;;21.90;;
15677;SDS011;7939;50.814;6.368;2022-10-18T09:12:49;43.35;;;21.92;;
15677;SDS011;7939;50.814;6.368;2022-10-18T09:15:30;39.17;;;19.73;;
15677;SDS011;7939;50.814;6.368;2022-10-18T09:18:08;42.47;;;20.70;;
15677;SDS011;7939;50.814;6.368;2022-10-18T09:20:51;43.35;;;20.55;;
15677;SDS011;7939;50.814;6.368;2022-10-18T09:23:22;44.97;;;19.90;;
15677;SDS011;7939;50.814;6.368;2022-10-18T09:26:00;44.95;;;21.80;;
15677;SDS011;7939;50.814;6.368;2022-10-18T09:28:36;48.03;;;21.83;;
15677;SDS011;7939;50.814;6.368;2022-10-18T09:31:15;43.90;;;21.23;;
15677;SDS011;7939;50.814;6.368;2022-10-18T09:33:47;45.45;;;21.88;;
15677;SDS011;7939;50.814;6.368;2022-10-18T09:36:19;50.55;;;22.65;;
15677;SDS011;7939;50.814;6.368;2022-10-18T09:38:49;46.78;;;21.77;;
15677;SDS011;7939;50.814;6.368;2022-10-18T09:41:20;50.35;;;23.30;;
15677;SDS011;7939;50.814;6.368;2022-10-18T09:43:53;45.15;;;21.42;;
15677;SDS011;7939;50.814;6.368;2022-10-18T09:46:24;40.03;;;21.08;;
15677;SDS011;7939;50.814;6.368;2022-10-18T09:48:55;43.10;;;20.70;;
15677;SDS011;7939;50.814;6.368;2022-10-18T09:51:26;45.72;;;22.00;;
15677;SDS011;7939;50.814;6.368;2022-10-18T09:53:59;45.97;;;22.13;;
15677;SDS011;7939;50.814;6.368;2022-10-18T09:56:31;46.72;;;23.58;;
15677;SDS011;7939;50.814;6.368;2022-10-18T09:59:03;49.08;;;23.40;;
15677;SDS011;7939;50.814;6.368;2022-10-18T10:01:30;46.67;;;22.08;;
15677;SDS011;7939;50.814;6.368;2022-10-18T10:03:57;42.90;;;22.10;;
15677;SDS011;7939;50.814;6.368;2022-10-18T10:06:25;42.95;;;21.80;;
15677;SDS011;7939;50.814;6.368;2022-10-18T10:08:54;46.35;;;21.95;;
15677;SDS011;7939;50.814;6.368;2022-10-18T10:11:25;46.35;;;21.65;;
15677;SDS011;7939;50.814;6.368;2022-10-18T10:14:01;43.83;;;21.42;;
15677;SDS011;7939;50.814;6.368;2022-10-18T10:16:34;43.80;;;21.38;;
15677;SDS011;7939;50.814;6.368;2022-10-18T10:19:14;46.03;;;22.95;;
15677;SDS011;7939;50.814;6.368;2022-10-18T10:21:42;44.63;;;20.98;;
15677;SDS011;7939;50.814;6.368;2022-10-18T10:24:13;47.28;;;21.52;;
15677;SDS011;7939;50.814;6.368;2022-10-18T10:26:47;47.70;;;22.80;;
15677;SDS011;7939;50.814;6.368;2022-10-18T10:32:14;45.00;;;20.83;;
15677;SDS011;7939;50.814;6.368;2022-10-18T10:34:42;43.17;;;21.35;;
15677;SDS011;7939;50.814;6.368;2022-10-18T10:37:20;46.28;;;22.10;;
15677;SDS011;7939;50.814;6.368;2022-10-18T10:40:03;38.30;;;20.98;;
15677;SDS011;7939;50.814;6.368;2022-10-18T10:42:31;40.90;;;20.67;;
15677;SDS011;7939;50.814;6.368;2022-10-18T10:44:58;43.10;;;21.38;;
15677;SDS011;7939;50.814;6.368;2022-10-18T10:47:30;43.75;;;21.23;;
15677;SDS011;7939;50.814;6.368;2022-10-18T10:49:58;35.13;;;19.23;;
15677;SDS011;7939;50.814;6.368;2022-10-18T10:52:24;42.55;;;19.27;;
15677;SDS011;7939;50.814;6.368;2022-10-18T10:54:54;45.83;;;21.58;;
15677;SDS011;7939;50.814;6.368;2022-10-18T10:57:23;41.13;;;21.48;;
15677;SDS011;7939;50.814;6.368;2022-10-18T10:59:53;40.33;;;21.50;;
15677;SDS011;7939;50.814;6.368;2022-10-18T11:02:22;44.10;;;23.30;;
15677;SDS011;7939;50.814;6.368;2022-10-18T11:04:56;39.28;;;22.02;;
15677;SDS011;7939;50.814;6.368;2022-10-18T11:07:45;41.40;;;21.42;;
15677;SDS011;7939;50.814;6.368;2022-10-18T11:10:12;44.30;;;22.92;;
15677;SDS011;7939;50.814;6.368;2022-10-18T11:12:42;43.85;;;23.33;;
15677;SDS011;7939;50.814;6.368;2022-10-18T11:15:15;49.05;;;22.95;;
15677;SDS011;7939;50.814;6.368;2022-10-18T11:17:46;46.25;;;20.65;;
15677;SDS011;7939;50.814;6.368;2022-10-18T11:20:25;49.85;;;22.23;;
15677;SDS011;7939;50.814;6.368;2022-10-18T11:22:57;41.15;;;21.00;;
15677;SDS011;7939;50.814;6.368;2022-10-18T11:25:27;39.30;;;18.95;;
15677;SDS011;7939;50.814;6.368;2022-10-18T11:28:15;40.55;;;20.23;;
15677;SDS011;7939;50.814;6.368;2022-10-18T11:30:55;42.92;;;20.77;;
15677;SDS011;7939;50.814;6.368;2022-10-18T11:33:36;39.53;;;21.17;;
15677;SDS011;7939;50.814;6.368;2022-10-18T11:36:13;52.10;;;24.77;;
15677;SDS011;7939;50.814;6.368;2022-10-18T11:38:47;52.70;;;25.67;;
15677;SDS011;7939;50.814;6.368;2022-10-18T11:41:24;46.88;;;22.80;;
15677;SDS011;7939;50.814;6.368;2022-10-18T11:43:57;45.38;;;23.67;;
15677;SDS011;7939;50.814;6.368;2022-10-18T11:49:31;47.05;;;23.60;;
15677;SDS011;7939;50.814;6.368;2022-10-18T11:52:12;48.65;;;24.58;;
15677;SDS011;7939;50.814;6.368;2022-10-18T11:54:49;50.33;;;24.75;;
15677;SDS011;7939;50.814;6.368;2022-10-18T11:57:33;55.28;;;27.10;;
15677;SDS011;7939;50.814;6.368;2022-10-18T12:00:14;46.20;;;23.05;;
15677;SDS011;7939;50.814;6.368;2022-10-18T12:03:05;46.83;;;22.77;;
15677;SDS011;7939;50.814;6.368;2022-10-18T12:05:40;46.72;;;23.90;;
15677;SDS011;7939;50.814;6.368;2022-10-18T12:08:12;43.78;;;22.15;;
15677;SDS011;7939;50.814;6.368;2022-10-18T12:10:42;52.08;;;23.63;;
15677;SDS011;7939;50.814;6.368;2022-10-18T12:13:13;46.45;;;23.38;;
15677;SDS011;7939;50.814;6.368;2022-10-18T12:15:43;43.03;;;20.35;;
15677;SDS011;7939;50.814;6.368;2022-10-18T12:18:12;41.25;;;21.02;;
15677;SDS011;7939;50.814;6.368;2022-10-18T12:20:42;44.20;;;20.15;;
15677;SDS011;7939;50.814;6.368;2022-10-18T12:23:14;43.45;;;22.17;;
15677;SDS011;7939;50.814;6.368;2022-10-18T12:25:44;36.55;;;20.02;;
15677;SDS011;7939;50.814;6.368;2022-10-18T12:28:15;38.83;;;19.60;;
15677;SDS011;7939;50.814;6.368;2022-10-18T12:30:52;37.33;;;19.02;;
15677;SDS011;7939;50.814;6.368;2022-10-18T12:33:29;38.85;;;19.58;;
15677;SDS011;7939;50.814;6.368;2022-10-18T12:36:04;36.88;;;20.08;;
15677;SDS011;7939;50.814;6.368;2022-10-18T12:38:42;42.05;;;21.08;;
15677;SDS011;7939;50.814;6.368;2022-10-18T12:43:49;40.78;;;20.48;;
15677;SDS011;7939;50.814;6.368;2022-10-18T12:46:18;44.20;;;22.02;;
15677;SDS011;7939;50.814;6.368;2022-10-18T12:48:47;38.33;;;19.50;;
15677;SDS011;7939;50.814;6.368;2022-10-18T12:51:25;39.10;;;19.80;;
15677;SDS011;7939;50.814;6.368;2022-10-18T12:53:53;35.03;;;19.42;;
15677;SDS011;7939;50.814;6.368;2022-10-18T12:56:36;37.05;;;19.73;;
15677;SDS011;7939;50.814;6.368;2022-10-18T13:02:22;45.45;;;23.45;;
15677;SDS011;7939;50.814;6.368;2022-10-18T13:04:54;47.17;;;25.27;;
15677;SDS011;7939;50.814;6.368;2022-10-18T13:13:11;42.70;;;19.67;;
15677;SDS011;7939;50.814;6.368;2022-10-18T13:15:55;39.53;;;20.33;;
15677;SDS011;7939;50.814;6.368;2022-10-18T13:18:29;39.03;;;18.60;;
15677;SDS011;7939;50.814;6.368;2022-10-18T13:21:08;48.65;;;23.13;;
15677;SDS011;7939;50.814;6.368;2022-10-18T13:23:41;40.80;;;20.40;;
15677;SDS011;7939;50.814;6.368;2022-10-18T13:26:24;43.95;;;19.33;;
15677;SDS011;7939;50.814;6.368;2022-10-18T13:29:03;38.28;;;20.92;;
15677;SDS011;7939;50.814;6.368;2022-10-18T13:31:41;45.70;;;21.83;;
15677;SDS011;7939;50.814;6.368;2022-10-18T13:34:16;37.92;;;18.92;;
15677;SDS011;7939;50.814;6.368;2022-10-18T13:36:54;36.60;;;17.52;;
15677;SDS011;7939;50.814;6.368;2022-10-18T13:39:22;36.45;;;19.80;;
15677;SDS011;7939;50.814;6.368;2022-10-18T13:51:08;36.90;;;18.45;;
15677;SDS011;7939;50.814;6.368;2022-10-18T13:54:00;30.90;;;18.50;;
15677;SDS011;7939;50.814;6.368;2022-10-18T13:56:45;36.75;;;17.17;;
15677;SDS011;7939;50.814;6.368;2022-10-18T13:59:33;29.30;;;17.35;;
15677;SDS011;7939;50.814;6.368;2022-10-18T14:02:19;28.27;;;16.33;;
15677;SDS011;7939;50.814;6.368;2022-10-18T14:05:04;32.30;;;17.40;;
15677;SDS011;7939;50.814;6.368;2022-10-18T14:07:40;29.92;;;16.40;;
15677;SDS011;7939;50.814;6.368;2022-10-18T14:10:08;30.83;;;16.05;;
15677;SDS011;7939;50.814;6.368;2022-10-18T14:12:46;34.75;;;17.65;;
15677;SDS011;7939;50.814;6.368;2022-10-18T14:15:19;37.20;;;18.63;;
15677;SDS011;7939;50.814;6.368;2022-10-18T14:17:50;28.13;;;16.15;;
15677;SDS011;7939;50.814;6.368;2022-10-18T14:20:21;27.25;;;14.93;;
15677;SDS011;7939;50.814;6.368;2022-10-18T14:22:55;27.02;;;14.70;;
15677;SDS011;7939;50.814;6.368;2022-10-18T14:25:28;28.25;;;15.82;;
15677;SDS011;7939;50.814;6.368;2022-10-18T14:28:04;27.80;;;14.88;;
15677;SDS011;7939;50.814;6.368;2022-10-18T14:30:32;27.77;;;14.20;;
15677;SDS011;7939;50.814;6.368;2022-10-18T14:33:00;25.50;;;13.93;;
15677;SDS011;7939;50.814;6.368;2022-10-18T14:35:28;25.08;;;13.60;;
15677;SDS011;7939;50.814;6.368;2022-10-18T14:38:00;22.95;;;12.77;;
15677;SDS011;7939;50.814;6.368;2022-10-18T14:40:29;26.83;;;13.77;;
15677;SDS011;7939;50.814;6.368;2022-10-18T14:43:01;26.48;;;13.73;;
15677;SDS011;7939;50.814;6.368;2022-10-18T14:45:30;23.83;;;13.70;;
15677;SDS011;7939;50.814;6.368;2022-10-18T14:48:06;19.65;;;11.65;;
15677;SDS011;7939;50.814;6.368;2022-10-18T14:50:38;20.98;;;11.98;;
15677;SDS011;7939;50.814;6.368;2022-10-18T14:53:06;20.38;;;12.02;;
15677;SDS011;7939;50.814;6.368;2022-10-18T14:55:39;26.58;;;13.25;;
15677;SDS011;7939;50.814;6.368;2022-10-18T14:58:08;20.10;;;12.18;;
15677;SDS011;7939;50.814;6.368;2022-10-18T15:00:39;26.38;;;11.88;;
15677;SDS011;7939;50.814;6.368;2022-10-18T15:03:07;22.27;;;12.63;;
15677;SDS011;7939;50.814;6.368;2022-10-18T15:05:49;23.00;;;13.30;;
15677;SDS011;7939;50.814;6.368;2022-10-18T15:08:19;20.88;;;11.77;;
15677;SDS011;7939;50.814;6.368;2022-10-18T15:10:47;27.08;;;12.63;;
15677;SDS011;7939;50.814;6.368;2022-10-18T15:13:14;25.33;;;13.60;;
15677;SDS011;7939;50.814;6.368;2022-10-18T15:15:41;26.85;;;14.35;;
15677;SDS011;7939;50.814;6.368;2022-10-18T15:18:12;24.52;;;13.70;;
15677;SDS011;7939;50.814;6.368;2022-10-18T15:20:45;30.83;;;14.88;;
15677;SDS011;7939;50.814;6.368;2022-10-18T15:23:34;28.95;;;13.77;;
15677;SDS011;7939;50.814;6.368;2022-10-18T15:26:01;29.50;;;14.10;;
15677;SDS011;7939;50.814;6.368;2022-10-18T15:28:31;27.75;;;13.27;;
15677;SDS011;7939;50.814;6.368;2022-10-18T15:31:00;22.00;;;12.30;;
15677;SDS011;7939;50.814;6.368;2022-10-18T15:33:29;29.27;;;14.18;;